sensor_id;sensor_type;location;lat;lon;timestamp;P1;durP1;ratioP1;P2;durP2;ratioP2
53034;SDS011;38923;53.236;6.506;2022-10-13T00:01:18;25.60;;;12.93;;
53034;SDS011;38923;53.236;6.506;2022-10-13T00:03:45;26.63;;;13.50;;
53034;SDS011;38923;53.236;6.506;2022-10-13T00:06:12;28.67;;;13.13;;
53034;SDS011;38923;53.236;6.506;2022-10-13T00:08:40;31.13;;;13.77;;
53034;SDS011;38923;53.236;6.506;2022-10-13T00:13:37;28.92;;;13.20;;
53034;SDS011;38923;53.236;6.506;2022-10-13T00:16:03;34.08;;;14.38;;
53034;SDS011;38923;53.236;6.506;2022-10-13T00:18:29;28.77;;;14.63;;
53034;SDS011;38923;53.236;6.506;2022-10-13T00:20:55;27.13;;;14.10;;
53034;SDS011;38923;53.236;6.506;2022-10-13T00:23:20;30.55;;;15.18;;
53034;SDS011;38923;53.236;6.506;2022-10-13T00:25:47;29.45;;;15.68;;
53034;SDS011;38923;53.236;6.506;2022-10-13T00:28:16;29.00;;;15.18;;
53034;SDS011;38923;53.236;6.506;2022-10-13T00:30:44;29.88;;;14.50;;
53034;SDS011;38923;53.236;6.506;2022-10-13T00:33:11;29.42;;;14.63;;
53034;SDS011;38923;53.236;6.506;2022-10-13T00:35:41;30.00;;;14.10;;
53034;SDS011;38923;53.236;6.506;2022-10-13T00:38:07;35.38;;;14.45;;
53034;SDS011;38923;53.236;6.506;2022-10-13T00:40:41;26.63;;;13.43;;
53034;SDS011;38923;53.236;6.506;2022-10-13T00:43:19;29.17;;;14.88;;
53034;SDS011;38923;53.236;6.506;2022-10-13T00:45:52;30.73;;;14.45;;
53034;SDS011;38923;53.236;6.506;2022-10-13T00:48:19;30.38;;;14.23;;
53034;SDS011;38923;53.236;6.506;2022-10-13T00:50:49;29.30;;;14.63;;
53034;SDS011;38923;53.236;6.506;2022-10-13T00:53:15;27.08;;;14.68;;
53034;SDS011;38923;53.236;6.506;2022-10-13T00:55:44;32.13;;;14.27;;
53034;SDS011;38923;53.236;6.506;2022-10-13T00:58:13;30.73;;;14.80;;
53034;SDS011;38923;53.236;6.506;2022-10-13T01:00:45;29.90;;;15.00;;
53034;SDS011;38923;53.236;6.506;2022-10-13T01:03:13;31.45;;;14.68;;
53034;SDS011;38923;53.236;6.506;2022-10-13T01:05:39;30.58;;;15.48;;
53034;SDS011;38923;53.236;6.506;2022-10-13T01:08:06;30.42;;;14.82;;
53034;SDS011;38923;53.236;6.506;2022-10-13T01:10:37;30.80;;;15.10;;
53034;SDS011;38923;53.236;6.506;2022-10-13T01:13:22;33.53;;;15.25;;
53034;SDS011;38923;53.236;6.506;2022-10-13T01:26:58;33.60;;;15.23;;
53034;SDS011;38923;53.236;6.506;2022-10-13T01:35:11;30.15;;;15.77;;
53034;SDS011;38923;53.236;6.506;2022-10-13T01:37:54;27.30;;;14.43;;
53034;SDS011;38923;53.236;6.506;2022-10-13T01:40:45;29.05;;;14.65;;
53034;SDS011;38923;53.236;6.506;2022-10-13T01:43:35;30.60;;;16.00;;
53034;SDS011;38923;53.236;6.506;2022-10-13T01:46:07;34.78;;;17.20;;
53034;SDS011;38923;53.236;6.506;2022-10-13T01:48:38;30.48;;;15.20;;
53034;SDS011;38923;53.236;6.506;2022-10-13T01:51:06;33.20;;;16.10;;
53034;SDS011;38923;53.236;6.506;2022-10-13T01:53:36;31.73;;;15.23;;
53034;SDS011;38923;53.236;6.506;2022-10-13T01:56:02;29.50;;;14.55;;
53034;SDS011;38923;53.236;6.506;2022-10-13T01:58:29;34.45;;;16.13;;
53034;SDS011;38923;53.236;6.506;2022-10-13T02:01:13;28.42;;;15.38;;
53034;SDS011;38923;53.236;6.506;2022-10-13T02:09:49;32.90;;;15.70;;
53034;SDS011;38923;53.236;6.506;2022-10-13T02:12:30;27.77;;;15.40;;
53034;SDS011;38923;53.236;6.506;2022-10-13T02:15:01;32.30;;;16.02;;
53034;SDS011;38923;53.236;6.506;2022-10-13T02:17:29;35.08;;;16.23;;
53034;SDS011;38923;53.236;6.506;2022-10-13T02:19:56;31.88;;;15.82;;
53034;SDS011;38923;53.236;6.506;2022-10-13T02:22:23;40.72;;;16.27;;
53034;SDS011;38923;53.236;6.506;2022-10-13T02:24:55;30.23;;;15.60;;
53034;SDS011;38923;53.236;6.506;2022-10-13T02:27:21;31.10;;;15.52;;
53034;SDS011;38923;53.236;6.506;2022-10-13T02:29:48;29.55;;;15.80;;
53034;SDS011;38923;53.236;6.506;2022-10-13T02:32:19;30.77;;;15.77;;
53034;SDS011;38923;53.236;6.506;2022-10-13T02:34:45;33.88;;;15.88;;
53034;SDS011;38923;53.236;6.506;2022-10-13T02:37:11;29.77;;;15.82;;
53034;SDS011;38923;53.236;6.506;2022-10-13T02:39:37;29.60;;;16.52;;
53034;SDS011;38923;53.236;6.506;2022-10-13T02:42:03;32.40;;;16.63;;
53034;SDS011;38923;53.236;6.506;2022-10-13T02:44:29;30.95;;;15.82;;
53034;SDS011;38923;53.236;6.506;2022-10-13T02:46:55;36.60;;;16.67;;
53034;SDS011;38923;53.236;6.506;2022-10-13T02:49:20;29.13;;;16.02;;
53034;SDS011;38923;53.236;6.506;2022-10-13T02:51:46;32.25;;;16.00;;
53034;SDS011;38923;53.236;6.506;2022-10-13T02:54:12;30.23;;;16.13;;
53034;SDS011;38923;53.236;6.506;2022-10-13T02:56:37;33.33;;;17.15;;
53034;SDS011;38923;53.236;6.506;2022-10-13T02:59:03;30.05;;;17.13;;
53034;SDS011;38923;53.236;6.506;2022-10-13T03:01:29;33.78;;;16.77;;
53034;SDS011;38923;53.236;6.506;2022-10-13T03:03:55;27.25;;;15.75;;
53034;SDS011;38923;53.236;6.506;2022-10-13T03:06:21;36.17;;;16.75;;
53034;SDS011;38923;53.236;6.506;2022-10-13T03:08:47;34.00;;;16.40;;
53034;SDS011;38923;53.236;6.506;2022-10-13T03:11:12;33.78;;;16.27;;
53034;SDS011;38923;53.236;6.506;2022-10-13T03:13:38;32.92;;;16.83;;
53034;SDS011;38923;53.236;6.506;2022-10-13T03:16:04;28.08;;;15.90;;
53034;SDS011;38923;53.236;6.506;2022-10-13T03:18:30;30.17;;;15.90;;
53034;SDS011;38923;53.236;6.506;2022-10-13T03:20:59;38.25;;;16.80;;
53034;SDS011;38923;53.236;6.506;2022-10-13T03:23:27;29.92;;;16.15;;
53034;SDS011;38923;53.236;6.506;2022-10-13T03:25:53;30.00;;;16.27;;
53034;SDS011;38923;53.236;6.506;2022-10-13T03:28:19;32.88;;;17.20;;
53034;SDS011;38923;53.236;6.506;2022-10-13T03:30:45;30.92;;;17.00;;
53034;SDS011;38923;53.236;6.506;2022-10-13T03:33:11;35.30;;;17.33;;
53034;SDS011;38923;53.236;6.506;2022-10-13T03:35:37;32.03;;;16.33;;
53034;SDS011;38923;53.236;6.506;2022-10-13T03:38:03;32.30;;;17.48;;
53034;SDS011;38923;53.236;6.506;2022-10-13T03:40:28;34.25;;;17.48;;
53034;SDS011;38923;53.236;6.506;2022-10-13T03:42:54;37.10;;;18.00;;
53034;SDS011;38923;53.236;6.506;2022-10-13T03:45:20;35.15;;;19.60;;
53034;SDS011;38923;53.236;6.506;2022-10-13T03:47:46;38.30;;;20.20;;
53034;SDS011;38923;53.236;6.506;2022-10-13T03:50:11;38.20;;;21.15;;
53034;SDS011;38923;53.236;6.506;2022-10-13T03:52:37;42.05;;;21.85;;
53034;SDS011;38923;53.236;6.506;2022-10-13T03:55:03;41.17;;;25.13;;
53034;SDS011;38923;53.236;6.506;2022-10-13T03:57:29;47.40;;;24.40;;
53034;SDS011;38923;53.236;6.506;2022-10-13T03:59:55;45.58;;;24.40;;
53034;SDS011;38923;53.236;6.506;2022-10-13T04:02:22;48.25;;;24.58;;
53034;SDS011;38923;53.236;6.506;2022-10-13T04:04:48;41.35;;;24.77;;
53034;SDS011;38923;53.236;6.506;2022-10-13T04:07:14;46.70;;;23.98;;
53034;SDS011;38923;53.236;6.506;2022-10-13T04:09:40;42.47;;;23.83;;
53034;SDS011;38923;53.236;6.506;2022-10-13T04:12:06;46.97;;;23.88;;
53034;SDS011;38923;53.236;6.506;2022-10-13T04:14:32;39.88;;;21.88;;
53034;SDS011;38923;53.236;6.506;2022-10-13T04:16:58;38.25;;;20.77;;
53034;SDS011;38923;53.236;6.506;2022-10-13T04:19:23;35.58;;;19.83;;
53034;SDS011;38923;53.236;6.506;2022-10-13T04:21:49;37.45;;;21.33;;
53034;SDS011;38923;53.236;6.506;2022-10-13T04:24:15;40.67;;;20.83;;
53034;SDS011;38923;53.236;6.506;2022-10-13T04:26:44;35.15;;;20.13;;
53034;SDS011;38923;53.236;6.506;2022-10-13T04:29:11;40.00;;;20.63;;
53034;SDS011;38923;53.236;6.506;2022-10-13T04:31:37;37.92;;;20.30;;
53034;SDS011;38923;53.236;6.506;2022-10-13T04:34:04;39.22;;;20.98;;
53034;SDS011;38923;53.236;6.506;2022-10-13T04:36:31;42.17;;;20.52;;
53034;SDS011;38923;53.236;6.506;2022-10-13T04:38:57;39.20;;;21.38;;
53034;SDS011;38923;53.236;6.506;2022-10-13T04:41:23;43.25;;;22.20;;
53034;SDS011;38923;53.236;6.506;2022-10-13T04:43:50;39.70;;;21.10;;
53034;SDS011;38923;53.236;6.506;2022-10-13T04:46:17;38.40;;;21.17;;
53034;SDS011;38923;53.236;6.506;2022-10-13T04:48:45;43.58;;;22.90;;
53034;SDS011;38923;53.236;6.506;2022-10-13T04:51:12;40.53;;;22.35;;
53034;SDS011;38923;53.236;6.506;2022-10-13T04:53:40;38.03;;;21.52;;
53034;SDS011;38923;53.236;6.506;2022-10-13T04:56:08;36.97;;;21.83;;
53034;SDS011;38923;53.236;6.506;2022-10-13T04:58:36;46.78;;;22.48;;
53034;SDS011;38923;53.236;6.506;2022-10-13T05:01:04;43.50;;;22.30;;
53034;SDS011;38923;53.236;6.506;2022-10-13T05:03:31;37.15;;;21.25;;
53034;SDS011;38923;53.236;6.506;2022-10-13T05:05:57;39.88;;;21.85;;
53034;SDS011;38923;53.236;6.506;2022-10-13T05:08:23;42.22;;;22.33;;
53034;SDS011;38923;53.236;6.506;2022-10-13T05:10:55;42.20;;;22.02;;
53034;SDS011;38923;53.236;6.506;2022-10-13T05:13:23;44.03;;;23.33;;
53034;SDS011;38923;53.236;6.506;2022-10-13T05:15:49;43.85;;;23.05;;
53034;SDS011;38923;53.236;6.506;2022-10-13T05:18:15;40.78;;;22.83;;
53034;SDS011;38923;53.236;6.506;2022-10-13T05:20:41;39.40;;;23.52;;
53034;SDS011;38923;53.236;6.506;2022-10-13T05:23:07;40.65;;;24.00;;
53034;SDS011;38923;53.236;6.506;2022-10-13T05:25:33;45.78;;;24.13;;
53034;SDS011;38923;53.236;6.506;2022-10-13T05:28:05;41.53;;;23.67;;
53034;SDS011;38923;53.236;6.506;2022-10-13T05:30:31;44.78;;;23.75;;
53034;SDS011;38923;53.236;6.506;2022-10-13T05:32:57;47.75;;;24.35;;
53034;SDS011;38923;53.236;6.506;2022-10-13T05:35:23;41.80;;;23.77;;
53034;SDS011;38923;53.236;6.506;2022-10-13T05:37:50;42.30;;;24.60;;
53034;SDS011;38923;53.236;6.506;2022-10-13T05:40:15;46.78;;;25.10;;
53034;SDS011;38923;53.236;6.506;2022-10-13T05:42:41;50.30;;;24.33;;
53034;SDS011;38923;53.236;6.506;2022-10-13T05:45:08;47.33;;;25.90;;
53034;SDS011;38923;53.236;6.506;2022-10-13T05:47:35;50.20;;;25.83;;
53034;SDS011;38923;53.236;6.506;2022-10-13T05:50:00;45.33;;;23.90;;
53034;SDS011;38923;53.236;6.506;2022-10-13T05:52:26;46.88;;;24.30;;
53034;SDS011;38923;53.236;6.506;2022-10-13T05:54:57;46.30;;;25.17;;
53034;SDS011;38923;53.236;6.506;2022-10-13T05:57:35;48.75;;;24.67;;
53034;SDS011;38923;53.236;6.506;2022-10-13T06:00:08;42.20;;;24.58;;
53034;SDS011;38923;53.236;6.506;2022-10-13T06:02:42;45.22;;;25.33;;
53034;SDS011;38923;53.236;6.506;2022-10-13T06:05:27;50.38;;;24.95;;
53034;SDS011;38923;53.236;6.506;2022-10-13T06:07:56;48.10;;;26.27;;
53034;SDS011;38923;53.236;6.506;2022-10-13T06:10:23;52.55;;;27.42;;
53034;SDS011;38923;53.236;6.506;2022-10-13T06:12:49;53.45;;;27.48;;
53034;SDS011;38923;53.236;6.506;2022-10-13T06:15:15;44.67;;;26.35;;
53034;SDS011;38923;53.236;6.506;2022-10-13T06:17:41;47.00;;;25.95;;
53034;SDS011;38923;53.236;6.506;2022-10-13T06:20:07;47.53;;;26.70;;
53034;SDS011;38923;53.236;6.506;2022-10-13T06:22:33;51.35;;;26.92;;
53034;SDS011;38923;53.236;6.506;2022-10-13T06:25:00;48.25;;;25.95;;
53034;SDS011;38923;53.236;6.506;2022-10-13T06:27:26;50.72;;;27.13;;
53034;SDS011;38923;53.236;6.506;2022-10-13T06:29:52;49.22;;;26.75;;
53034;SDS011;38923;53.236;6.506;2022-10-13T06:32:18;51.00;;;26.75;;
53034;SDS011;38923;53.236;6.506;2022-10-13T06:34:44;47.63;;;27.05;;
53034;SDS011;38923;53.236;6.506;2022-10-13T06:37:10;69.88;;;28.27;;
53034;SDS011;38923;53.236;6.506;2022-10-13T06:39:35;53.65;;;28.17;;
53034;SDS011;38923;53.236;6.506;2022-10-13T06:42:01;50.75;;;27.77;;
53034;SDS011;38923;53.236;6.506;2022-10-13T06:44:28;46.63;;;27.08;;
53034;SDS011;38923;53.236;6.506;2022-10-13T06:46:57;54.88;;;29.15;;
53034;SDS011;38923;53.236;6.506;2022-10-13T06:49:23;53.42;;;28.15;;
53034;SDS011;38923;53.236;6.506;2022-10-13T06:51:49;51.00;;;29.05;;
53034;SDS011;38923;53.236;6.506;2022-10-13T06:54:15;52.90;;;28.67;;
53034;SDS011;38923;53.236;6.506;2022-10-13T06:56:41;51.47;;;28.95;;
53034;SDS011;38923;53.236;6.506;2022-10-13T06:59:07;52.92;;;28.27;;
53034;SDS011;38923;53.236;6.506;2022-10-13T07:01:32;54.25;;;28.48;;
53034;SDS011;38923;53.236;6.506;2022-10-13T07:03:58;55.20;;;28.17;;
53034;SDS011;38923;53.236;6.506;2022-10-13T07:06:24;54.05;;;28.88;;
53034;SDS011;38923;53.236;6.506;2022-10-13T07:08:50;54.58;;;28.08;;
53034;SDS011;38923;53.236;6.506;2022-10-13T07:11:16;51.70;;;27.60;;
53034;SDS011;38923;53.236;6.506;2022-10-13T07:13:42;48.17;;;26.98;;
53034;SDS011;38923;53.236;6.506;2022-10-13T07:16:09;47.75;;;28.70;;
53034;SDS011;38923;53.236;6.506;2022-10-13T07:18:35;51.60;;;28.38;;
53034;SDS011;38923;53.236;6.506;2022-10-13T07:21:01;44.90;;;27.05;;
53034;SDS011;38923;53.236;6.506;2022-10-13T07:23:27;48.35;;;26.75;;
53034;SDS011;38923;53.236;6.506;2022-10-13T07:25:54;54.85;;;28.10;;
53034;SDS011;38923;53.236;6.506;2022-10-13T07:28:24;54.97;;;27.83;;
53034;SDS011;38923;53.236;6.506;2022-10-13T07:30:51;47.30;;;27.05;;
53034;SDS011;38923;53.236;6.506;2022-10-13T07:33:17;51.97;;;27.25;;
53034;SDS011;38923;53.236;6.506;2022-10-13T07:35:44;55.50;;;30.67;;
53034;SDS011;38923;53.236;6.506;2022-10-13T07:38:11;56.40;;;32.25;;
53034;SDS011;38923;53.236;6.506;2022-10-13T07:40:37;57.63;;;33.70;;
53034;SDS011;38923;53.236;6.506;2022-10-13T07:43:03;61.92;;;35.40;;
53034;SDS011;38923;53.236;6.506;2022-10-13T07:45:28;65.57;;;37.00;;
53034;SDS011;38923;53.236;6.506;2022-10-13T07:47:55;74.55;;;40.42;;
53034;SDS011;38923;53.236;6.506;2022-10-13T07:50:21;66.15;;;37.95;;
53034;SDS011;38923;53.236;6.506;2022-10-13T07:52:46;66.57;;;37.58;;
53034;SDS011;38923;53.236;6.506;2022-10-13T07:55:12;64.55;;;37.95;;
53034;SDS011;38923;53.236;6.506;2022-10-13T07:57:38;65.45;;;38.65;;
53034;SDS011;38923;53.236;6.506;2022-10-13T08:00:04;56.70;;;32.78;;
53034;SDS011;38923;53.236;6.506;2022-10-13T08:02:30;56.20;;;33.30;;
53034;SDS011;38923;53.236;6.506;2022-10-13T08:04:56;63.30;;;32.13;;
53034;SDS011;38923;53.236;6.506;2022-10-13T08:07:22;58.30;;;32.28;;
53034;SDS011;38923;53.236;6.506;2022-10-13T08:09:48;60.45;;;34.15;;
53034;SDS011;38923;53.236;6.506;2022-10-13T08:12:14;55.35;;;32.17;;
53034;SDS011;38923;53.236;6.506;2022-10-13T08:14:39;50.78;;;30.30;;
53034;SDS011;38923;53.236;6.506;2022-10-13T08:17:06;53.33;;;28.90;;
53034;SDS011;38923;53.236;6.506;2022-10-13T08:19:32;57.25;;;31.38;;
53034;SDS011;38923;53.236;6.506;2022-10-13T08:21:58;50.38;;;31.83;;
53034;SDS011;38923;53.236;6.506;2022-10-13T08:24:24;61.92;;;33.40;;
53034;SDS011;38923;53.236;6.506;2022-10-13T08:26:50;52.28;;;31.35;;
53034;SDS011;38923;53.236;6.506;2022-10-13T08:29:16;50.50;;;31.25;;
53034;SDS011;38923;53.236;6.506;2022-10-13T08:31:42;60.13;;;34.55;;
53034;SDS011;38923;53.236;6.506;2022-10-13T08:34:08;55.80;;;34.17;;
53034;SDS011;38923;53.236;6.506;2022-10-13T08:36:35;61.00;;;34.33;;
53034;SDS011;38923;53.236;6.506;2022-10-13T08:39:01;65.07;;;37.05;;
53034;SDS011;38923;53.236;6.506;2022-10-13T08:41:32;59.13;;;33.58;;
53034;SDS011;38923;53.236;6.506;2022-10-13T08:44:09;61.65;;;33.03;;
53034;SDS011;38923;53.236;6.506;2022-10-13T08:47:15;48.38;;;29.25;;
53034;SDS011;38923;53.236;6.506;2022-10-13T08:49:47;50.75;;;27.65;;
53034;SDS011;38923;53.236;6.506;2022-10-13T08:52:18;49.55;;;27.63;;
53034;SDS011;38923;53.236;6.506;2022-10-13T08:54:50;45.85;;;28.27;;
53034;SDS011;38923;53.236;6.506;2022-10-13T08:57:18;57.70;;;30.38;;
53034;SDS011;38923;53.236;6.506;2022-10-13T08:59:44;56.40;;;30.23;;
53034;SDS011;38923;53.236;6.506;2022-10-13T09:02:12;53.55;;;29.90;;
53034;SDS011;38923;53.236;6.506;2022-10-13T09:04:51;53.88;;;30.20;;
53034;SDS011;38923;53.236;6.506;2022-10-13T09:07:22;54.88;;;30.23;;
53034;SDS011;38923;53.236;6.506;2022-10-13T09:09:51;63.28;;;32.63;;
53034;SDS011;38923;53.236;6.506;2022-10-13T09:12:18;53.60;;;31.25;;
53034;SDS011;38923;53.236;6.506;2022-10-13T09:15:02;64.38;;;33.35;;
53034;SDS011;38923;53.236;6.506;2022-10-13T09:17:30;52.33;;;29.52;;
53034;SDS011;38923;53.236;6.506;2022-10-13T09:19:59;61.67;;;32.95;;
53034;SDS011;38923;53.236;6.506;2022-10-13T09:22:35;61.92;;;31.58;;
53034;SDS011;38923;53.236;6.506;2022-10-13T09:32:57;60.35;;;32.75;;
53034;SDS011;38923;53.236;6.506;2022-10-13T09:35:33;60.35;;;30.63;;
53034;SDS011;38923;53.236;6.506;2022-10-13T09:43:55;54.95;;;30.88;;
53034;SDS011;38923;53.236;6.506;2022-10-13T09:46:24;55.70;;;30.83;;
53034;SDS011;38923;53.236;6.506;2022-10-13T09:51:57;59.78;;;32.70;;
53034;SDS011;38923;53.236;6.506;2022-10-13T09:59:40;58.75;;;33.75;;
53034;SDS011;38923;53.236;6.506;2022-10-13T10:04:44;60.55;;;32.15;;
53034;SDS011;38923;53.236;6.506;2022-10-13T10:07:11;52.50;;;31.70;;
53034;SDS011;38923;53.236;6.506;2022-10-13T10:09:55;53.75;;;31.35;;
53034;SDS011;38923;53.236;6.506;2022-10-13T10:12:27;56.00;;;30.95;;
53034;SDS011;38923;53.236;6.506;2022-10-13T10:14:54;58.50;;;32.15;;
53034;SDS011;38923;53.236;6.506;2022-10-13T10:17:32;52.72;;;30.13;;
53034;SDS011;38923;53.236;6.506;2022-10-13T10:25:43;46.13;;;26.00;;
53034;SDS011;38923;53.236;6.506;2022-10-13T10:36:47;48.15;;;25.98;;
53034;SDS011;38923;53.236;6.506;2022-10-13T10:39:22;41.80;;;24.27;;
53034;SDS011;38923;53.236;6.506;2022-10-13T10:44:47;44.95;;;23.92;;
53034;SDS011;38923;53.236;6.506;2022-10-13T10:47:26;40.65;;;23.88;;
53034;SDS011;38923;53.236;6.506;2022-10-13T10:50:01;38.13;;;23.08;;
53034;SDS011;38923;53.236;6.506;2022-10-13T10:52:33;40.42;;;24.38;;
53034;SDS011;38923;53.236;6.506;2022-10-13T10:55:28;39.15;;;23.35;;
53034;SDS011;38923;53.236;6.506;2022-10-13T10:57:57;47.47;;;25.85;;
53034;SDS011;38923;53.236;6.506;2022-10-13T11:00:25;43.22;;;23.92;;
53034;SDS011;38923;53.236;6.506;2022-10-13T11:02:58;47.90;;;26.92;;
53034;SDS011;38923;53.236;6.506;2022-10-13T11:05:52;37.20;;;23.50;;
53034;SDS011;38923;53.236;6.506;2022-10-13T11:08:25;48.90;;;26.20;;
53034;SDS011;38923;53.236;6.506;2022-10-13T11:13:54;47.22;;;26.83;;
53034;SDS011;38923;53.236;6.506;2022-10-13T11:17:09;37.95;;;22.75;;
53034;SDS011;38923;53.236;6.506;2022-10-13T11:19:35;39.10;;;22.70;;
53034;SDS011;38923;53.236;6.506;2022-10-13T11:34:57;39.70;;;25.08;;
53034;SDS011;38923;53.236;6.506;2022-10-13T11:51:20;47.15;;;26.50;;
53034;SDS011;38923;53.236;6.506;2022-10-13T11:56:56;39.55;;;25.20;;
53034;SDS011;38923;53.236;6.506;2022-10-13T11:59:27;35.47;;;23.50;;
53034;SDS011;38923;53.236;6.506;2022-10-13T12:01:58;39.25;;;25.30;;
53034;SDS011;38923;53.236;6.506;2022-10-13T12:04:33;36.75;;;23.08;;
53034;SDS011;38923;53.236;6.506;2022-10-13T12:07:00;32.72;;;22.40;;
53034;SDS011;38923;53.236;6.506;2022-10-13T12:09:29;38.47;;;24.75;;
53034;SDS011;38923;53.236;6.506;2022-10-13T12:12:03;45.90;;;26.60;;
53034;SDS011;38923;53.236;6.506;2022-10-13T12:14:38;42.53;;;26.58;;
53034;SDS011;38923;53.236;6.506;2022-10-13T12:19:54;40.88;;;24.95;;
53034;SDS011;38923;53.236;6.506;2022-10-13T12:22:21;37.90;;;23.17;;
53034;SDS011;38923;53.236;6.506;2022-10-13T12:25:01;41.58;;;24.08;;
53034;SDS011;38923;53.236;6.506;2022-10-13T12:27:31;40.15;;;24.42;;
53034;SDS011;38923;53.236;6.506;2022-10-13T12:30:18;34.33;;;23.10;;
53034;SDS011;38923;53.236;6.506;2022-10-13T12:32:50;40.42;;;25.55;;
53034;SDS011;38923;53.236;6.506;2022-10-13T12:35:27;35.00;;;23.55;;
53034;SDS011;38923;53.236;6.506;2022-10-13T12:37:55;37.38;;;23.90;;
53034;SDS011;38923;53.236;6.506;2022-10-13T12:40:22;43.10;;;25.77;;
53034;SDS011;38923;53.236;6.506;2022-10-13T12:42:49;40.85;;;25.52;;
53034;SDS011;38923;53.236;6.506;2022-10-13T12:45:16;40.33;;;25.20;;
53034;SDS011;38923;53.236;6.506;2022-10-13T12:47:49;39.43;;;25.60;;
53034;SDS011;38923;53.236;6.506;2022-10-13T12:56:16;35.00;;;23.23;;
53034;SDS011;38923;53.236;6.506;2022-10-13T12:58:34;40.10;;;22.95;;
53034;SDS011;38923;53.236;6.506;2022-10-13T13:03:41;35.00;;;23.10;;
53034;SDS011;38923;53.236;6.506;2022-10-13T13:06:09;34.33;;;22.73;;
53034;SDS011;38923;53.236;6.506;2022-10-13T13:08:38;33.03;;;21.50;;
53034;SDS011;38923;53.236;6.506;2022-10-13T13:11:06;33.15;;;22.77;;
53034;SDS011;38923;53.236;6.506;2022-10-13T13:19:51;32.90;;;18.50;;
53034;SDS011;38923;53.236;6.506;2022-10-13T13:22:18;35.67;;;22.48;;
53034;SDS011;38923;53.236;6.506;2022-10-13T13:24:44;39.55;;;22.38;;
53034;SDS011;38923;53.236;6.506;2022-10-13T13:27:13;36.58;;;23.80;;
53034;SDS011;38923;53.236;6.506;2022-10-13T13:29:41;33.13;;;21.63;;
53034;SDS011;38923;53.236;6.506;2022-10-13T13:32:11;40.20;;;23.35;;
53034;SDS011;38923;53.236;6.506;2022-10-13T13:34:38;31.58;;;21.33;;
53034;SDS011;38923;53.236;6.506;2022-10-13T13:37:04;33.42;;;22.00;;
53034;SDS011;38923;53.236;6.506;2022-10-13T13:39:30;35.85;;;22.38;;
53034;SDS011;38923;53.236;6.506;2022-10-13T13:41:56;34.40;;;21.38;;
53034;SDS011;38923;53.236;6.506;2022-10-13T13:44:21;37.63;;;22.13;;
53034;SDS011;38923;53.236;6.506;2022-10-13T13:46:47;36.92;;;21.83;;
53034;SDS011;38923;53.236;6.506;2022-10-13T13:49:13;36.55;;;22.27;;
53034;SDS011;38923;53.236;6.506;2022-10-13T13:51:38;36.33;;;24.40;;
53034;SDS011;38923;53.236;6.506;2022-10-13T13:54:04;39.30;;;24.52;;
53034;SDS011;38923;53.236;6.506;2022-10-13T13:56:30;42.55;;;23.85;;
53034;SDS011;38923;53.236;6.506;2022-10-13T13:58:56;38.78;;;24.02;;
53034;SDS011;38923;53.236;6.506;2022-10-13T14:01:21;38.55;;;23.88;;
53034;SDS011;38923;53.236;6.506;2022-10-13T14:03:48;36.88;;;23.98;;
53034;SDS011;38923;53.236;6.506;2022-10-13T14:06:18;34.28;;;22.70;;
53034;SDS011;38923;53.236;6.506;2022-10-13T14:08:45;38.63;;;24.70;;
53034;SDS011;38923;53.236;6.506;2022-10-13T14:11:10;39.92;;;23.85;;
53034;SDS011;38923;53.236;6.506;2022-10-13T14:13:36;36.33;;;23.73;;
53034;SDS011;38923;53.236;6.506;2022-10-13T14:16:02;35.03;;;22.83;;
53034;SDS011;38923;53.236;6.506;2022-10-13T14:18:28;34.53;;;23.67;;
53034;SDS011;38923;53.236;6.506;2022-10-13T14:20:55;33.15;;;22.33;;
53034;SDS011;38923;53.236;6.506;2022-10-13T14:23:20;35.00;;;22.38;;
53034;SDS011;38923;53.236;6.506;2022-10-13T14:25:46;35.58;;;22.30;;
53034;SDS011;38923;53.236;6.506;2022-10-13T14:28:12;35.65;;;23.80;;
53034;SDS011;38923;53.236;6.506;2022-10-13T14:30:38;29.77;;;20.90;;
53034;SDS011;38923;53.236;6.506;2022-10-13T14:33:05;36.63;;;21.98;;
53034;SDS011;38923;53.236;6.506;2022-10-13T14:35:30;36.05;;;22.55;;
53034;SDS011;38923;53.236;6.506;2022-10-13T14:37:56;33.65;;;21.25;;
53034;SDS011;38923;53.236;6.506;2022-10-13T14:40:22;32.53;;;19.95;;
53034;SDS011;38923;53.236;6.506;2022-10-13T14:42:48;32.15;;;21.77;;
53034;SDS011;38923;53.236;6.506;2022-10-13T14:45:14;35.20;;;21.52;;
53034;SDS011;38923;53.236;6.506;2022-10-13T14:47:40;35.20;;;22.50;;
53034;SDS011;38923;53.236;6.506;2022-10-13T14:50:07;35.70;;;21.90;;
53034;SDS011;38923;53.236;6.506;2022-10-13T14:52:33;35.22;;;22.67;;
53034;SDS011;38923;53.236;6.506;2022-10-13T14:54:58;33.80;;;21.48;;
53034;SDS011;38923;53.236;6.506;2022-10-13T14:57:24;30.23;;;20.70;;
53034;SDS011;38923;53.236;6.506;2022-10-13T14:59:50;35.22;;;21.35;;
53034;SDS011;38923;53.236;6.506;2022-10-13T15:02:15;36.75;;;21.00;;
53034;SDS011;38923;53.236;6.506;2022-10-13T15:04:41;37.75;;;21.77;;
53034;SDS011;38923;53.236;6.506;2022-10-13T15:07:07;34.38;;;21.98;;
53034;SDS011;38923;53.236;6.506;2022-10-13T15:09:33;33.95;;;22.05;;
53034;SDS011;38923;53.236;6.506;2022-10-13T15:11:58;35.08;;;20.42;;
53034;SDS011;38923;53.236;6.506;2022-10-13T15:14:24;40.00;;;22.85;;
53034;SDS011;38923;53.236;6.506;2022-10-13T15:16:50;40.58;;;22.77;;
53034;SDS011;38923;53.236;6.506;2022-10-13T15:19:16;32.80;;;19.58;;
53034;SDS011;38923;53.236;6.506;2022-10-13T15:21:41;35.08;;;21.83;;
53034;SDS011;38923;53.236;6.506;2022-10-13T15:24:08;43.35;;;23.98;;
53034;SDS011;38923;53.236;6.506;2022-10-13T15:26:35;35.00;;;22.13;;
53034;SDS011;38923;53.236;6.506;2022-10-13T15:29:01;34.50;;;21.50;;
53034;SDS011;38923;53.236;6.506;2022-10-13T15:31:27;36.92;;;21.67;;
53034;SDS011;38923;53.236;6.506;2022-10-13T15:33:55;40.85;;;24.65;;
53034;SDS011;38923;53.236;6.506;2022-10-13T15:36:21;40.35;;;24.65;;
53034;SDS011;38923;53.236;6.506;2022-10-13T15:38:49;46.85;;;23.98;;
53034;SDS011;38923;53.236;6.506;2022-10-13T15:41:15;40.33;;;24.45;;
53034;SDS011;38923;53.236;6.506;2022-10-13T15:43:42;38.38;;;24.05;;
53034;SDS011;38923;53.236;6.506;2022-10-13T15:46:12;33.92;;;22.23;;
53034;SDS011;38923;53.236;6.506;2022-10-13T15:48:45;14.07;;;6.40;;
53034;SDS011;38923;53.236;6.506;2022-10-13T15:51:17;9.32;;;2.80;;
53034;SDS011;38923;53.236;6.506;2022-10-13T15:53:44;9.50;;;1.92;;
53034;SDS011;38923;53.236;6.506;2022-10-13T15:56:11;10.65;;;2.20;;
53034;SDS011;38923;53.236;6.506;2022-10-13T15:58:37;11.02;;;2.47;;
53034;SDS011;38923;53.236;6.506;2022-10-13T16:01:09;8.95;;;2.50;;
53034;SDS011;38923;53.236;6.506;2022-10-13T16:03:36;9.25;;;2.65;;
53034;SDS011;38923;53.236;6.506;2022-10-13T16:06:03;15.45;;;2.83;;
53034;SDS011;38923;53.236;6.506;2022-10-13T16:08:34;8.05;;;3.00;;
53034;SDS011;38923;53.236;6.506;2022-10-13T16:11:00;8.55;;;2.00;;
53034;SDS011;38923;53.236;6.506;2022-10-13T16:13:32;5.93;;;1.52;;
53034;SDS011;38923;53.236;6.506;2022-10-13T16:15:58;7.00;;;1.60;;
53034;SDS011;38923;53.236;6.506;2022-10-13T16:18:32;7.43;;;2.00;;
53034;SDS011;38923;53.236;6.506;2022-10-13T16:21:06;5.72;;;1.52;;
53034;SDS011;38923;53.236;6.506;2022-10-13T16:23:46;9.90;;;1.90;;
53034;SDS011;38923;53.236;6.506;2022-10-13T16:26:12;8.38;;;1.50;;
53034;SDS011;38923;53.236;6.506;2022-10-13T16:28:39;7.75;;;1.73;;